sensor_id;sensor_type;location;lat;lon;timestamp;P1;durP1;ratioP1;P2;durP2;ratioP2
2680;SDS011;1350;42.134;24.708;2023-07-13T00:00:05;20.60;;;14.30;;
2680;SDS011;1350;42.134;24.708;2023-07-13T00:02:35;21.83;;;14.47;;
2680;SDS011;1350;42.134;24.708;2023-07-13T00:05:03;19.67;;;15.83;;
2680;SDS011;1350;42.134;24.708;2023-07-13T00:07:31;17.10;;;14.87;;
2680;SDS011;1350;42.134;24.708;2023-07-13T00:09:58;50.43;;;20.10;;
2680;SDS011;1350;42.134;24.708;2023-07-13T00:12:26;28.93;;;16.77;;
2680;SDS011;1350;42.134;24.708;2023-07-13T00:14:54;19.17;;;15.47;;
2680;SDS011;1350;42.134;24.708;2023-07-13T00:17:22;15.20;;;13.50;;
2680;SDS011;1350;42.134;24.708;2023-07-13T00:19:49;17.77;;;15.90;;
2680;SDS011;1350;42.134;24.708;2023-07-13T00:22:17;25.37;;;15.90;;
2680;SDS011;1350;42.134;24.708;2023-07-13T00:24:44;20.93;;;14.80;;
2680;SDS011;1350;42.134;24.708;2023-07-13T00:27:11;16.97;;;14.37;;
2680;SDS011;1350;42.134;24.708;2023-07-13T00:29:38;19.60;;;16.17;;
2680;SDS011;1350;42.134;24.708;2023-07-13T00:32:06;17.13;;;13.83;;
2680;SDS011;1350;42.134;24.708;2023-07-13T00:34:34;16.80;;;15.00;;
2680;SDS011;1350;42.134;24.708;2023-07-13T00:37:01;17.73;;;13.83;;
2680;SDS011;1350;42.134;24.708;2023-07-13T00:39:29;16.67;;;14.73;;
2680;SDS011;1350;42.134;24.708;2023-07-13T00:41:56;16.73;;;13.70;;
2680;SDS011;1350;42.134;24.708;2023-07-13T00:44:23;16.03;;;14.47;;
2680;SDS011;1350;42.134;24.708;2023-07-13T00:46:49;18.33;;;13.80;;
2680;SDS011;1350;42.134;24.708;2023-07-13T00:49:17;16.17;;;14.47;;
2680;SDS011;1350;42.134;24.708;2023-07-13T00:51:47;18.83;;;14.50;;
2680;SDS011;1350;42.134;24.708;2023-07-13T00:54:17;17.70;;;15.00;;
2680;SDS011;1350;42.134;24.708;2023-07-13T00:56:48;15.73;;;14.13;;
2680;SDS011;1350;42.134;24.708;2023-07-13T00:59:18;17.73;;;13.87;;
2680;SDS011;1350;42.134;24.708;2023-07-13T01:01:47;17.20;;;13.27;;
2680;SDS011;1350;42.134;24.708;2023-07-13T01:04:15;13.47;;;11.83;;
2680;SDS011;1350;42.134;24.708;2023-07-13T01:06:43;17.93;;;13.40;;
2680;SDS011;1350;42.134;24.708;2023-07-13T01:09:12;14.80;;;13.30;;
2680;SDS011;1350;42.134;24.708;2023-07-13T01:11:41;14.93;;;12.97;;
2680;SDS011;1350;42.134;24.708;2023-07-13T01:14:11;16.47;;;11.90;;
2680;SDS011;1350;42.134;24.708;2023-07-13T01:16:38;14.80;;;13.20;;
2680;SDS011;1350;42.134;24.708;2023-07-13T01:19:08;17.87;;;12.70;;
2680;SDS011;1350;42.134;24.708;2023-07-13T01:21:44;12.03;;;10.77;;
2680;SDS011;1350;42.134;24.708;2023-07-13T01:24:16;14.57;;;12.87;;
2680;SDS011;1350;42.134;24.708;2023-07-13T01:26:43;17.87;;;14.20;;
2680;SDS011;1350;42.134;24.708;2023-07-13T01:29:10;30.93;;;14.13;;
2680;SDS011;1350;42.134;24.708;2023-07-13T01:31:36;22.80;;;13.90;;
2680;SDS011;1350;42.134;24.708;2023-07-13T01:34:03;19.10;;;13.30;;
2680;SDS011;1350;42.134;24.708;2023-07-13T01:36:30;14.40;;;12.27;;
2680;SDS011;1350;42.134;24.708;2023-07-13T01:38:58;14.40;;;12.07;;
2680;SDS011;1350;42.134;24.708;2023-07-13T01:41:25;16.03;;;13.30;;
2680;SDS011;1350;42.134;24.708;2023-07-13T01:43:52;16.77;;;12.43;;
2680;SDS011;1350;42.134;24.708;2023-07-13T01:46:18;15.47;;;12.83;;
2680;SDS011;1350;42.134;24.708;2023-07-13T01:48:45;15.00;;;12.30;;
2680;SDS011;1350;42.134;24.708;2023-07-13T01:51:12;16.23;;;13.30;;
2680;SDS011;1350;42.134;24.708;2023-07-13T01:53:39;13.97;;;12.47;;
2680;SDS011;1350;42.134;24.708;2023-07-13T01:56:07;14.20;;;12.20;;
2680;SDS011;1350;42.134;24.708;2023-07-13T01:58:33;15.93;;;13.50;;
2680;SDS011;1350;42.134;24.708;2023-07-13T02:01:00;14.40;;;12.90;;
2680;SDS011;1350;42.134;24.708;2023-07-13T02:03:27;17.70;;;12.77;;
2680;SDS011;1350;42.134;24.708;2023-07-13T02:05:54;15.20;;;13.13;;
2680;SDS011;1350;42.134;24.708;2023-07-13T02:08:20;16.10;;;12.77;;
2680;SDS011;1350;42.134;24.708;2023-07-13T02:10:47;17.13;;;13.00;;
2680;SDS011;1350;42.134;24.708;2023-07-13T02:13:15;13.80;;;12.23;;
2680;SDS011;1350;42.134;24.708;2023-07-13T02:15:42;15.53;;;13.10;;
2680;SDS011;1350;42.134;24.708;2023-07-13T02:18:08;15.63;;;14.03;;
2680;SDS011;1350;42.134;24.708;2023-07-13T02:20:35;15.30;;;12.43;;
2680;SDS011;1350;42.134;24.708;2023-07-13T02:23:02;16.33;;;12.53;;
2680;SDS011;1350;42.134;24.708;2023-07-13T02:25:29;19.30;;;12.23;;
2680;SDS011;1350;42.134;24.708;2023-07-13T02:27:55;18.10;;;11.70;;
2680;SDS011;1350;42.134;24.708;2023-07-13T02:30:24;14.20;;;11.90;;
2680;SDS011;1350;42.134;24.708;2023-07-13T02:32:51;16.23;;;13.70;;
2680;SDS011;1350;42.134;24.708;2023-07-13T02:35:17;15.73;;;12.17;;
2680;SDS011;1350;42.134;24.708;2023-07-13T02:37:44;15.00;;;12.13;;
2680;SDS011;1350;42.134;24.708;2023-07-13T02:40:11;14.60;;;12.27;;
2680;SDS011;1350;42.134;24.708;2023-07-13T02:42:38;14.80;;;12.40;;
2680;SDS011;1350;42.134;24.708;2023-07-13T02:45:05;15.00;;;12.93;;
2680;SDS011;1350;42.134;24.708;2023-07-13T02:47:35;27.63;;;12.23;;
2680;SDS011;1350;42.134;24.708;2023-07-13T02:50:02;15.90;;;12.80;;
2680;SDS011;1350;42.134;24.708;2023-07-13T02:52:29;19.40;;;13.70;;
2680;SDS011;1350;42.134;24.708;2023-07-13T02:54:56;14.10;;;12.60;;
2680;SDS011;1350;42.134;24.708;2023-07-13T02:57:23;16.67;;;12.00;;
2680;SDS011;1350;42.134;24.708;2023-07-13T02:59:49;23.33;;;12.60;;
2680;SDS011;1350;42.134;24.708;2023-07-13T03:02:16;21.63;;;12.70;;
2680;SDS011;1350;42.134;24.708;2023-07-13T03:04:44;16.03;;;12.80;;
2680;SDS011;1350;42.134;24.708;2023-07-13T03:07:11;16.60;;;13.10;;
2680;SDS011;1350;42.134;24.708;2023-07-13T03:09:39;18.20;;;11.10;;
2680;SDS011;1350;42.134;24.708;2023-07-13T03:12:06;14.93;;;12.40;;
2680;SDS011;1350;42.134;24.708;2023-07-13T03:14:33;16.40;;;11.63;;
2680;SDS011;1350;42.134;24.708;2023-07-13T03:17:00;17.43;;;12.10;;
2680;SDS011;1350;42.134;24.708;2023-07-13T03:19:26;15.10;;;11.63;;
2680;SDS011;1350;42.134;24.708;2023-07-13T03:21:55;22.33;;;12.33;;
2680;SDS011;1350;42.134;24.708;2023-07-13T03:24:21;13.90;;;11.67;;
2680;SDS011;1350;42.134;24.708;2023-07-13T03:26:50;18.43;;;11.70;;
2680;SDS011;1350;42.134;24.708;2023-07-13T03:29:17;19.50;;;13.37;;
2680;SDS011;1350;42.134;24.708;2023-07-13T03:31:44;15.37;;;11.90;;
2680;SDS011;1350;42.134;24.708;2023-07-13T03:34:11;14.10;;;10.97;;
2680;SDS011;1350;42.134;24.708;2023-07-13T03:36:38;16.83;;;11.90;;
2680;SDS011;1350;42.134;24.708;2023-07-13T03:39:06;13.63;;;11.93;;
2680;SDS011;1350;42.134;24.708;2023-07-13T03:41:33;19.37;;;14.03;;
2680;SDS011;1350;42.134;24.708;2023-07-13T03:44:00;15.93;;;12.13;;
2680;SDS011;1350;42.134;24.708;2023-07-13T03:46:29;16.27;;;12.47;;
2680;SDS011;1350;42.134;24.708;2023-07-13T03:48:56;17.13;;;11.67;;
2680;SDS011;1350;42.134;24.708;2023-07-13T03:51:23;18.63;;;11.60;;
2680;SDS011;1350;42.134;24.708;2023-07-13T03:53:50;15.80;;;12.27;;
2680;SDS011;1350;42.134;24.708;2023-07-13T03:56:18;22.60;;;13.40;;
2680;SDS011;1350;42.134;24.708;2023-07-13T03:58:46;18.10;;;13.13;;
2680;SDS011;1350;42.134;24.708;2023-07-13T04:01:15;14.30;;;12.67;;
2680;SDS011;1350;42.134;24.708;2023-07-13T04:03:43;14.37;;;11.50;;
2680;SDS011;1350;42.134;24.708;2023-07-13T04:06:13;20.70;;;12.50;;
2680;SDS011;1350;42.134;24.708;2023-07-13T04:08:46;17.13;;;13.23;;
2680;SDS011;1350;42.134;24.708;2023-07-13T04:11:14;32.03;;;12.10;;
2680;SDS011;1350;42.134;24.708;2023-07-13T04:13:42;20.60;;;13.50;;
2680;SDS011;1350;42.134;24.708;2023-07-13T04:16:09;25.73;;;13.20;;
2680;SDS011;1350;42.134;24.708;2023-07-13T04:18:36;17.70;;;11.73;;
2680;SDS011;1350;42.134;24.708;2023-07-13T04:21:02;16.90;;;12.47;;
2680;SDS011;1350;42.134;24.708;2023-07-13T04:23:29;15.50;;;12.73;;
2680;SDS011;1350;42.134;24.708;2023-07-13T04:25:56;15.50;;;12.20;;
2680;SDS011;1350;42.134;24.708;2023-07-13T04:28:23;18.93;;;14.37;;
2680;SDS011;1350;42.134;24.708;2023-07-13T04:30:52;20.73;;;13.00;;
2680;SDS011;1350;42.134;24.708;2023-07-13T04:33:19;17.47;;;12.27;;
2680;SDS011;1350;42.134;24.708;2023-07-13T04:35:47;14.50;;;12.67;;
2680;SDS011;1350;42.134;24.708;2023-07-13T04:38:14;19.17;;;13.80;;
2680;SDS011;1350;42.134;24.708;2023-07-13T04:40:42;16.77;;;14.13;;
2680;SDS011;1350;42.134;24.708;2023-07-13T04:43:08;17.87;;;14.07;;
2680;SDS011;1350;42.134;24.708;2023-07-13T04:45:36;20.53;;;15.90;;
2680;SDS011;1350;42.134;24.708;2023-07-13T04:48:07;20.33;;;15.83;;
2680;SDS011;1350;42.134;24.708;2023-07-13T04:50:35;18.30;;;14.97;;
2680;SDS011;1350;42.134;24.708;2023-07-13T04:53:02;23.90;;;16.00;;
2680;SDS011;1350;42.134;24.708;2023-07-13T04:55:30;22.93;;;14.70;;
2680;SDS011;1350;42.134;24.708;2023-07-13T04:57:57;16.20;;;13.47;;
2680;SDS011;1350;42.134;24.708;2023-07-13T05:00:25;17.23;;;14.03;;
2680;SDS011;1350;42.134;24.708;2023-07-13T05:02:53;26.60;;;14.97;;
2680;SDS011;1350;42.134;24.708;2023-07-13T05:05:22;17.27;;;14.93;;
2680;SDS011;1350;42.134;24.708;2023-07-13T05:07:49;39.43;;;16.33;;
2680;SDS011;1350;42.134;24.708;2023-07-13T05:10:15;24.43;;;14.60;;
2680;SDS011;1350;42.134;24.708;2023-07-13T05:12:42;18.50;;;14.87;;
2680;SDS011;1350;42.134;24.708;2023-07-13T05:15:09;20.23;;;16.57;;
2680;SDS011;1350;42.134;24.708;2023-07-13T05:17:36;19.63;;;13.97;;
2680;SDS011;1350;42.134;24.708;2023-07-13T05:20:04;22.57;;;15.60;;
2680;SDS011;1350;42.134;24.708;2023-07-13T05:22:33;20.03;;;14.70;;
2680;SDS011;1350;42.134;24.708;2023-07-13T05:25:00;23.90;;;14.37;;
2680;SDS011;1350;42.134;24.708;2023-07-13T05:27:27;21.43;;;14.60;;
2680;SDS011;1350;42.134;24.708;2023-07-13T05:29:54;22.17;;;14.57;;
2680;SDS011;1350;42.134;24.708;2023-07-13T05:32:21;25.80;;;14.47;;
2680;SDS011;1350;42.134;24.708;2023-07-13T05:34:48;18.93;;;13.27;;
2680;SDS011;1350;42.134;24.708;2023-07-13T05:37:14;26.87;;;15.43;;
2680;SDS011;1350;42.134;24.708;2023-07-13T05:39:42;32.80;;;16.87;;
2680;SDS011;1350;42.134;24.708;2023-07-13T05:42:09;19.00;;;14.57;;
2680;SDS011;1350;42.134;24.708;2023-07-13T05:44:36;25.67;;;14.77;;
2680;SDS011;1350;42.134;24.708;2023-07-13T05:47:03;26.77;;;14.77;;
2680;SDS011;1350;42.134;24.708;2023-07-13T05:49:30;22.17;;;15.53;;
2680;SDS011;1350;42.134;24.708;2023-07-13T05:51:57;17.97;;;13.97;;
2680;SDS011;1350;42.134;24.708;2023-07-13T05:54:23;36.10;;;16.63;;
2680;SDS011;1350;42.134;24.708;2023-07-13T05:56:52;23.17;;;14.40;;
2680;SDS011;1350;42.134;24.708;2023-07-13T05:59:18;24.40;;;13.80;;
2680;SDS011;1350;42.134;24.708;2023-07-13T06:01:45;34.47;;;15.73;;
2680;SDS011;1350;42.134;24.708;2023-07-13T06:04:12;21.90;;;15.80;;
2680;SDS011;1350;42.134;24.708;2023-07-13T06:06:38;17.07;;;14.03;;
2680;SDS011;1350;42.134;24.708;2023-07-13T06:09:05;42.33;;;17.47;;
2680;SDS011;1350;42.134;24.708;2023-07-13T06:11:32;18.60;;;13.30;;
2680;SDS011;1350;42.134;24.708;2023-07-13T06:14:01;34.00;;;15.30;;
2680;SDS011;1350;42.134;24.708;2023-07-13T06:16:29;17.63;;;14.13;;
2680;SDS011;1350;42.134;24.708;2023-07-13T06:18:55;27.73;;;13.57;;
2680;SDS011;1350;42.134;24.708;2023-07-13T06:21:22;22.13;;;13.80;;
2680;SDS011;1350;42.134;24.708;2023-07-13T06:23:50;18.27;;;12.83;;
2680;SDS011;1350;42.134;24.708;2023-07-13T06:26:18;48.67;;;17.53;;
2680;SDS011;1350;42.134;24.708;2023-07-13T06:28:45;23.27;;;13.93;;
2680;SDS011;1350;42.134;24.708;2023-07-13T06:31:14;19.63;;;14.37;;
2680;SDS011;1350;42.134;24.708;2023-07-13T06:33:41;15.47;;;13.70;;
2680;SDS011;1350;42.134;24.708;2023-07-13T06:36:08;29.40;;;14.90;;
2680;SDS011;1350;42.134;24.708;2023-07-13T06:38:35;19.23;;;15.23;;
2680;SDS011;1350;42.134;24.708;2023-07-13T06:41:02;21.20;;;13.80;;
2680;SDS011;1350;42.134;24.708;2023-07-13T06:43:30;14.93;;;12.87;;
2680;SDS011;1350;42.134;24.708;2023-07-13T06:45:57;24.30;;;14.60;;
2680;SDS011;1350;42.134;24.708;2023-07-13T06:48:25;22.63;;;12.83;;
2680;SDS011;1350;42.134;24.708;2023-07-13T06:50:52;16.30;;;13.30;;
2680;SDS011;1350;42.134;24.708;2023-07-13T06:53:19;21.83;;;11.70;;
2680;SDS011;1350;42.134;24.708;2023-07-13T06:55:46;13.60;;;12.17;;
2680;SDS011;1350;42.134;24.708;2023-07-13T06:58:14;15.40;;;13.80;;
2680;SDS011;1350;42.134;24.708;2023-07-13T07:00:41;15.07;;;13.57;;
2680;SDS011;1350;42.134;24.708;2023-07-13T07:03:08;17.83;;;13.97;;
2680;SDS011;1350;42.134;24.708;2023-07-13T07:05:36;15.60;;;13.83;;
2680;SDS011;1350;42.134;24.708;2023-07-13T07:08:03;17.53;;;13.00;;
2680;SDS011;1350;42.134;24.708;2023-07-13T07:10:30;16.07;;;12.53;;
2680;SDS011;1350;42.134;24.708;2023-07-13T07:12:57;15.00;;;12.07;;
2680;SDS011;1350;42.134;24.708;2023-07-13T07:15:26;35.63;;;15.23;;
2680;SDS011;1350;42.134;24.708;2023-07-13T07:17:53;16.03;;;13.10;;
2680;SDS011;1350;42.134;24.708;2023-07-13T07:20:19;56.47;;;17.27;;
2680;SDS011;1350;42.134;24.708;2023-07-13T07:22:48;41.53;;;16.67;;
2680;SDS011;1350;42.134;24.708;2023-07-13T07:25:15;72.90;;;28.17;;
2680;SDS011;1350;42.134;24.708;2023-07-13T07:27:41;39.33;;;18.60;;
2680;SDS011;1350;42.134;24.708;2023-07-13T07:30:08;23.57;;;14.77;;
2680;SDS011;1350;42.134;24.708;2023-07-13T07:32:36;19.67;;;13.20;;
2680;SDS011;1350;42.134;24.708;2023-07-13T07:35:03;17.40;;;13.47;;
2680;SDS011;1350;42.134;24.708;2023-07-13T07:37:30;29.90;;;15.70;;
2680;SDS011;1350;42.134;24.708;2023-07-13T07:39:58;18.63;;;13.20;;
2680;SDS011;1350;42.134;24.708;2023-07-13T07:42:25;19.40;;;15.40;;
2680;SDS011;1350;42.134;24.708;2023-07-13T07:44:52;26.70;;;23.57;;
2680;SDS011;1350;42.134;24.708;2023-07-13T07:47:18;18.10;;;12.67;;
2680;SDS011;1350;42.134;24.708;2023-07-13T07:49:45;18.57;;;15.03;;
2680;SDS011;1350;42.134;24.708;2023-07-13T07:52:12;16.17;;;14.10;;
2680;SDS011;1350;42.134;24.708;2023-07-13T07:54:39;28.97;;;13.63;;
2680;SDS011;1350;42.134;24.708;2023-07-13T07:57:07;42.33;;;38.17;;
2680;SDS011;1350;42.134;24.708;2023-07-13T07:59:35;18.50;;;14.20;;
2680;SDS011;1350;42.134;24.708;2023-07-13T08:02:02;17.67;;;13.03;;
2680;SDS011;1350;42.134;24.708;2023-07-13T08:04:30;16.40;;;13.00;;
2680;SDS011;1350;42.134;24.708;2023-07-13T08:06:56;55.57;;;15.60;;
2680;SDS011;1350;42.134;24.708;2023-07-13T08:09:23;21.27;;;12.83;;
2680;SDS011;1350;42.134;24.708;2023-07-13T08:11:50;15.80;;;11.40;;
2680;SDS011;1350;42.134;24.708;2023-07-13T08:14:18;20.87;;;12.97;;
2680;SDS011;1350;42.134;24.708;2023-07-13T08:16:45;68.10;;;19.00;;
2680;SDS011;1350;42.134;24.708;2023-07-13T08:19:12;21.83;;;12.70;;
2680;SDS011;1350;42.134;24.708;2023-07-13T08:21:39;14.73;;;13.07;;
2680;SDS011;1350;42.134;24.708;2023-07-13T08:24:07;22.93;;;13.50;;
2680;SDS011;1350;42.134;24.708;2023-07-13T08:26:34;16.67;;;12.40;;
2680;SDS011;1350;42.134;24.708;2023-07-13T08:29:00;20.83;;;12.60;;
2680;SDS011;1350;42.134;24.708;2023-07-13T08:31:29;18.77;;;13.77;;
2680;SDS011;1350;42.134;24.708;2023-07-13T08:33:56;16.43;;;13.13;;
2680;SDS011;1350;42.134;24.708;2023-07-13T08:36:23;14.70;;;12.87;;
2680;SDS011;1350;42.134;24.708;2023-07-13T08:38:49;17.57;;;12.27;;
2680;SDS011;1350;42.134;24.708;2023-07-13T08:41:17;16.00;;;12.80;;
2680;SDS011;1350;42.134;24.708;2023-07-13T08:43:45;17.37;;;14.07;;
2680;SDS011;1350;42.134;24.708;2023-07-13T08:46:16;37.90;;;16.37;;
2680;SDS011;1350;42.134;24.708;2023-07-13T08:48:49;29.10;;;12.53;;
2680;SDS011;1350;42.134;24.708;2023-07-13T08:51:24;17.00;;;12.70;;
2680;SDS011;1350;42.134;24.708;2023-07-13T08:53:58;19.97;;;13.27;;
2680;SDS011;1350;42.134;24.708;2023-07-13T08:56:27;15.83;;;11.20;;
2680;SDS011;1350;42.134;24.708;2023-07-13T08:58:56;15.37;;;10.13;;
2680;SDS011;1350;42.134;24.708;2023-07-13T09:01:26;18.20;;;10.53;;
2680;SDS011;1350;42.134;24.708;2023-07-13T09:04:02;12.27;;;10.37;;
2680;SDS011;1350;42.134;24.708;2023-07-13T09:06:35;17.37;;;10.80;;
2680;SDS011;1350;42.134;24.708;2023-07-13T09:09:16;21.20;;;11.70;;
2680;SDS011;1350;42.134;24.708;2023-07-13T09:11:55;23.13;;;9.60;;
2680;SDS011;1350;42.134;24.708;2023-07-13T09:14:35;17.43;;;10.60;;
2680;SDS011;1350;42.134;24.708;2023-07-13T09:17:10;11.53;;;9.80;;
2680;SDS011;1350;42.134;24.708;2023-07-13T09:19:42;12.63;;;10.30;;
2680;SDS011;1350;42.134;24.708;2023-07-13T09:22:13;10.83;;;8.53;;
2680;SDS011;1350;42.134;24.708;2023-07-13T09:24:49;14.70;;;10.23;;
2680;SDS011;1350;42.134;24.708;2023-07-13T09:27:22;10.27;;;9.17;;
2680;SDS011;1350;42.134;24.708;2023-07-13T09:29:54;10.90;;;8.50;;
2680;SDS011;1350;42.134;24.708;2023-07-13T09:32:27;17.33;;;10.30;;
2680;SDS011;1350;42.134;24.708;2023-07-13T09:34:57;12.80;;;9.07;;
2680;SDS011;1350;42.134;24.708;2023-07-13T09:37:28;14.70;;;9.70;;
2680;SDS011;1350;42.134;24.708;2023-07-13T09:39:58;12.33;;;8.70;;
2680;SDS011;1350;42.134;24.708;2023-07-13T09:42:30;14.00;;;9.63;;
2680;SDS011;1350;42.134;24.708;2023-07-13T09:44:59;11.17;;;8.40;;
2680;SDS011;1350;42.134;24.708;2023-07-13T09:47:29;12.10;;;8.50;;
2680;SDS011;1350;42.134;24.708;2023-07-13T09:49:59;12.27;;;8.87;;
2680;SDS011;1350;42.134;24.708;2023-07-13T09:52:42;10.90;;;8.20;;
2680;SDS011;1350;42.134;24.708;2023-07-13T09:55:25;13.00;;;8.87;;
2680;SDS011;1350;42.134;24.708;2023-07-13T09:57:55;13.63;;;8.43;;
2680;SDS011;1350;42.134;24.708;2023-07-13T10:00:22;16.10;;;7.13;;
2680;SDS011;1350;42.134;24.708;2023-07-13T10:02:58;9.63;;;7.90;;
2680;SDS011;1350;42.134;24.708;2023-07-13T10:05:37;10.33;;;8.00;;
2680;SDS011;1350;42.134;24.708;2023-07-13T10:08:15;10.67;;;8.37;;
2680;SDS011;1350;42.134;24.708;2023-07-13T10:10:45;10.93;;;7.67;;
2680;SDS011;1350;42.134;24.708;2023-07-13T10:16:06;12.33;;;7.80;;
2680;SDS011;1350;42.134;24.708;2023-07-13T10:18:38;14.20;;;8.60;;
2680;SDS011;1350;42.134;24.708;2023-07-13T10:21:13;17.57;;;8.17;;
2680;SDS011;1350;42.134;24.708;2023-07-13T10:23:43;13.40;;;8.17;;
2680;SDS011;1350;42.134;24.708;2023-07-13T10:26:15;14.80;;;8.80;;
2680;SDS011;1350;42.134;24.708;2023-07-13T10:28:46;12.53;;;8.23;;
2680;SDS011;1350;42.134;24.708;2023-07-13T10:31:25;14.87;;;7.57;;
2680;SDS011;1350;42.134;24.708;2023-07-13T10:33:55;13.00;;;8.20;;
2680;SDS011;1350;42.134;24.708;2023-07-13T10:36:38;17.50;;;8.37;;
2680;SDS011;1350;42.134;24.708;2023-07-13T10:42:30;27.50;;;9.40;;
2680;SDS011;1350;42.134;24.708;2023-07-13T10:45:04;10.30;;;8.13;;
2680;SDS011;1350;42.134;24.708;2023-07-13T10:47:41;11.70;;;8.33;;
2680;SDS011;1350;42.134;24.708;2023-07-13T10:50:09;11.33;;;7.80;;
2680;SDS011;1350;42.134;24.708;2023-07-13T10:55:56;13.70;;;8.03;;
2680;SDS011;1350;42.134;24.708;2023-07-13T10:58:28;9.60;;;5.90;;
2680;SDS011;1350;42.134;24.708;2023-07-13T11:01:03;13.30;;;7.43;;
2680;SDS011;1350;42.134;24.708;2023-07-13T11:03:37;11.07;;;6.33;;
2680;SDS011;1350;42.134;24.708;2023-07-13T11:06:17;18.00;;;8.10;;
2680;SDS011;1350;42.134;24.708;2023-07-13T11:09:24;12.43;;;7.73;;
2680;SDS011;1350;42.134;24.708;2023-07-13T11:12:00;11.30;;;7.13;;
2680;SDS011;1350;42.134;24.708;2023-07-13T11:14:37;13.93;;;8.50;;
2680;SDS011;1350;42.134;24.708;2023-07-13T11:17:46;20.77;;;15.37;;
2680;SDS011;1350;42.134;24.708;2023-07-13T11:20:20;9.00;;;7.40;;
2680;SDS011;1350;42.134;24.708;2023-07-13T11:22:50;11.33;;;5.87;;
2680;SDS011;1350;42.134;24.708;2023-07-13T11:25:24;12.23;;;9.47;;
2680;SDS011;1350;42.134;24.708;2023-07-13T11:28:11;18.67;;;8.27;;
2680;SDS011;1350;42.134;24.708;2023-07-13T11:30:46;9.63;;;6.33;;
2680;SDS011;1350;42.134;24.708;2023-07-13T11:33:15;13.07;;;6.80;;
2680;SDS011;1350;42.134;24.708;2023-07-13T11:35:45;10.40;;;6.87;;
2680;SDS011;1350;42.134;24.708;2023-07-13T11:38:21;9.03;;;6.00;;
2680;SDS011;1350;42.134;24.708;2023-07-13T11:40:53;9.80;;;6.40;;
2680;SDS011;1350;42.134;24.708;2023-07-13T11:43:26;9.30;;;6.20;;
2680;SDS011;1350;42.134;24.708;2023-07-13T11:45:53;22.07;;;9.10;;
2680;SDS011;1350;42.134;24.708;2023-07-13T11:48:24;17.70;;;6.37;;
2680;SDS011;1350;42.134;24.708;2023-07-13T11:50:55;10.00;;;6.50;;
2680;SDS011;1350;42.134;24.708;2023-07-13T11:53:26;13.33;;;6.53;;
2680;SDS011;1350;42.134;24.708;2023-07-13T11:55:55;36.80;;;10.30;;
2680;SDS011;1350;42.134;24.708;2023-07-13T11:58:26;14.57;;;6.63;;
2680;SDS011;1350;42.134;24.708;2023-07-13T12:00:58;13.03;;;7.07;;
2680;SDS011;1350;42.134;24.708;2023-07-13T12:03:35;13.27;;;6.00;;
2680;SDS011;1350;42.134;24.708;2023-07-13T12:06:06;10.37;;;6.50;;
2680;SDS011;1350;42.134;24.708;2023-07-13T12:08:49;12.73;;;7.00;;
2680;SDS011;1350;42.134;24.708;2023-07-13T12:11:17;13.37;;;6.87;;
2680;SDS011;1350;42.134;24.708;2023-07-13T12:13:46;9.13;;;6.17;;
2680;SDS011;1350;42.134;24.708;2023-07-13T12:16:17;19.83;;;6.47;;
2680;SDS011;1350;42.134;24.708;2023-07-13T12:18:52;14.80;;;6.90;;
2680;SDS011;1350;42.134;24.708;2023-07-13T12:21:19;19.23;;;7.27;;
2680;SDS011;1350;42.134;24.708;2023-07-13T12:23:52;14.40;;;7.50;;
2680;SDS011;1350;42.134;24.708;2023-07-13T12:26:19;11.40;;;5.90;;
2680;SDS011;1350;42.134;24.708;2023-07-13T12:28:48;13.97;;;7.20;;
2680;SDS011;1350;42.134;24.708;2023-07-13T12:31:25;16.17;;;11.57;;
2680;SDS011;1350;42.134;24.708;2023-07-13T12:33:58;12.13;;;8.27;;
2680;SDS011;1350;42.134;24.708;2023-07-13T12:36:26;10.60;;;7.40;;
2680;SDS011;1350;42.134;24.708;2023-07-13T12:38:58;14.03;;;10.50;;
2680;SDS011;1350;42.134;24.708;2023-07-13T12:41:30;11.57;;;7.07;;
2680;SDS011;1350;42.134;24.708;2023-07-13T12:43:59;18.23;;;8.47;;
2680;SDS011;1350;42.134;24.708;2023-07-13T12:46:26;22.17;;;9.67;;
2680;SDS011;1350;42.134;24.708;2023-07-13T12:48:54;12.30;;;5.90;;
2680;SDS011;1350;42.134;24.708;2023-07-13T12:51:24;14.43;;;6.00;;
2680;SDS011;1350;42.134;24.708;2023-07-13T12:53:55;15.47;;;7.20;;
2680;SDS011;1350;42.134;24.708;2023-07-13T12:56:25;10.70;;;6.30;;
2680;SDS011;1350;42.134;24.708;2023-07-13T12:58:57;14.73;;;7.03;;
2680;SDS011;1350;42.134;24.708;2023-07-13T13:01:27;16.87;;;6.73;;
2680;SDS011;1350;42.134;24.708;2023-07-13T13:03:56;10.80;;;6.03;;
2680;SDS011;1350;42.134;24.708;2023-07-13T13:06:31;15.73;;;6.47;;
2680;SDS011;1350;42.134;24.708;2023-07-13T13:09:01;21.90;;;7.20;;
2680;SDS011;1350;42.134;24.708;2023-07-13T13:11:29;12.13;;;6.83;;
2680;SDS011;1350;42.134;24.708;2023-07-13T13:13:58;14.23;;;6.63;;
2680;SDS011;1350;42.134;24.708;2023-07-13T13:16:29;16.83;;;6.70;;
2680;SDS011;1350;42.134;24.708;2023-07-13T13:18:59;13.67;;;6.70;;
2680;SDS011;1350;42.134;24.708;2023-07-13T13:21:32;12.43;;;7.00;;
2680;SDS011;1350;42.134;24.708;2023-07-13T13:23:58;12.03;;;5.77;;
2680;SDS011;1350;42.134;24.708;2023-07-13T13:26:25;13.63;;;6.50;;
2680;SDS011;1350;42.134;24.708;2023-07-13T13:28:52;11.13;;;5.87;;
2680;SDS011;1350;42.134;24.708;2023-07-13T13:31:20;13.50;;;6.73;;
2680;SDS011;1350;42.134;24.708;2023-07-13T13:33:47;17.33;;;7.93;;
2680;SDS011;1350;42.134;24.708;2023-07-13T13:36:14;15.53;;;8.30;;
2680;SDS011;1350;42.134;24.708;2023-07-13T13:38:43;14.40;;;7.33;;
2680;SDS011;1350;42.134;24.708;2023-07-13T13:41:10;14.23;;;6.83;;
2680;SDS011;1350;42.134;24.708;2023-07-13T13:43:39;9.60;;;5.50;;
2680;SDS011;1350;42.134;24.708;2023-07-13T13:46:11;14.13;;;7.40;;
2680;SDS011;1350;42.134;24.708;2023-07-13T13:48:43;12.13;;;6.30;;
2680;SDS011;1350;42.134;24.708;2023-07-13T13:51:12;19.57;;;6.60;;
2680;SDS011;1350;42.134;24.708;2023-07-13T13:53:41;14.30;;;7.03;;
2680;SDS011;1350;42.134;24.708;2023-07-13T13:56:08;15.60;;;6.80;;
2680;SDS011;1350;42.134;24.708;2023-07-13T13:58:35;16.13;;;7.53;;
2680;SDS011;1350;42.134;24.708;2023-07-13T14:01:02;14.93;;;7.03;;
2680;SDS011;1350;42.134;24.708;2023-07-13T14:03:31;12.63;;;7.20;;
2680;SDS011;1350;42.134;24.708;2023-07-13T14:05:59;18.13;;;7.20;;
2680;SDS011;1350;42.134;24.708;2023-07-13T14:08:26;15.33;;;7.10;;
2680;SDS011;1350;42.134;24.708;2023-07-13T14:10:54;16.73;;;7.37;;
2680;SDS011;1350;42.134;24.708;2023-07-13T14:13:24;14.50;;;8.07;;
2680;SDS011;1350;42.134;24.708;2023-07-13T14:15:54;16.70;;;8.20;;
2680;SDS011;1350;42.134;24.708;2023-07-13T14:18:21;16.57;;;8.63;;
2680;SDS011;1350;42.134;24.708;2023-07-13T14:20:49;20.67;;;8.37;;
2680;SDS011;1350;42.134;24.708;2023-07-13T14:23:18;10.67;;;7.70;;
2680;SDS011;1350;42.134;24.708;2023-07-13T14:25:45;19.27;;;7.60;;
2680;SDS011;1350;42.134;24.708;2023-07-13T14:28:24;15.40;;;8.40;;
2680;SDS011;1350;42.134;24.708;2023-07-13T14:30:53;26.77;;;9.80;;
2680;SDS011;1350;42.134;24.708;2023-07-13T14:33:20;14.83;;;8.30;;
2680;SDS011;1350;42.134;24.708;2023-07-13T14:35:47;17.90;;;12.07;;
2680;SDS011;1350;42.134;24.708;2023-07-13T14:38:15;16.00;;;8.27;;
2680;SDS011;1350;42.134;24.708;2023-07-13T14:40:46;23.17;;;8.60;;
2680;SDS011;1350;42.134;24.708;2023-07-13T14:43:13;20.50;;;14.50;;
2680;SDS011;1350;42.134;24.708;2023-07-13T14:45:42;13.70;;;7.93;;
2680;SDS011;1350;42.134;24.708;2023-07-13T14:48:15;13.47;;;8.67;;
2680;SDS011;1350;42.134;24.708;2023-07-13T14:50:45;20.43;;;8.47;;
2680;SDS011;1350;42.134;24.708;2023-07-13T14:53:12;15.27;;;7.93;;
2680;SDS011;1350;42.134;24.708;2023-07-13T14:55:39;16.10;;;8.40;;
2680;SDS011;1350;42.134;24.708;2023-07-13T14:58:09;12.47;;;7.80;;